Time;durP1;ratioP1;P1;durP2;ratioP2;P2;SDS_P1;SDS_P2;PMS_P1;PMS_P2;Temp;Humidity;BMP_temperature;BMP_pressure;BME280_temperature;BME280_humidity;BME280_pressure;Samples;Min_cycle;Max_cycle;Signal;HPM_P1;HPM_P2
2023/05/14 00:30:45;;;;;;;5.70;4.45;;;;;;;17.32;42.63;100158.63;5082926;28;20059;-89
2023/05/14 00:33:11;;;;;;;7.32;4.30;;;;;;;17.30;42.79;100158.75;5029626;28;20119;-80
2023/05/14 00:35:37;;;;;;;9.73;5.35;;;;;;;17.26;43.69;100154.63;5030965;28;20085;-80
2023/05/14 00:38:04;;;;;;;5.43;4.10;;;;;;;17.23;42.74;100151.38;5031268;28;20088;-80
2023/05/14 00:40:30;;;;;;;8.70;5.28;;;;;;;17.21;43.33;100147.97;5037126;28;20053;-80
2023/05/14 00:42:56;;;;;;;5.65;4.22;;;;;;;17.18;42.90;100144.59;5051735;28;20052;-80
2023/05/14 00:45:23;;;;;;;7.03;4.68;;;;;;;17.16;43.62;100145.69;5051416;28;20061;-80
2023/05/14 00:47:50;;;;;;;6.68;4.53;;;;;;;17.14;44.19;100143.16;5034072;28;20470;-80
2023/05/14 00:50:16;;;;;;;7.03;4.60;;;;;;;17.16;44.18;100143.03;5050993;28;20135;-80
2023/05/14 00:52:43;;;;;;;8.80;4.60;;;;;;;17.16;43.88;100137.72;5051354;28;20157;-80
2023/05/14 00:55:15;;;;;;;6.45;4.30;;;;;;;17.15;44.01;100141.31;5050299;28;20053;-80
2023/05/14 00:57:42;;;;;;;8.02;4.78;;;;;;;17.14;44.46;100140.50;5051061;28;20107;-80
2023/05/14 01:00:09;;;;;;;7.32;4.68;;;;;;;17.15;43.78;100134.19;5051361;28;20056;-80
2023/05/14 01:02:35;;;;;;;6.72;4.35;;;;;;;17.16;43.87;100132.38;5051444;28;20059;-80
2023/05/14 01:05:02;;;;;;;8.05;4.65;;;;;;;17.16;43.82;100141.19;5050793;28;20473;-80
2023/05/14 01:07:45;;;;;;;8.10;4.68;;;;;;;17.15;44.96;100133.34;5041149;28;20088;-80
2023/05/14 01:10:23;;;;;;;4.88;4.15;;;;;;;17.16;44.08;100135.88;5051448;28;20045;-80
2023/05/14 01:13:14;;;;;;;7.72;3.53;;;;;;;17.16;43.56;100130.56;5051499;28;20067;-80
2023/05/14 01:15:43;;;;;;;5.35;3.55;;;;;;;17.22;43.91;100131.03;5049206;28;20611;-80
2023/05/14 01:18:12;;;;;;;5.03;3.53;;;;;;;17.22;44.22;100125.72;5050457;28;20049;-80
2023/05/14 01:20:39;;;;;;;3.67;3.15;;;;;;;17.25;44.43;100126.34;5050764;28;20114;-80
2023/05/14 01:23:05;;;;;;;5.80;3.05;;;;;;;17.24;43.46;100116.66;5050925;28;20114;-80
2023/05/14 01:25:32;;;;;;;4.40;2.83;;;;;;;17.25;43.38;100115.69;5050690;28;20140;-80
2023/05/14 01:28:08;;;;;;;8.93;3.42;;;;;;;17.24;44.77;100122.00;5050634;28;20095;-80
2023/05/14 01:30:47;;;;;;;3.85;3.20;;;;;;;17.29;44.52;100121.59;5066073;28;20136;-80
2023/05/14 01:33:17;;;;;;;3.63;2.88;;;;;;;17.29;44.25;100122.47;5049788;28;20060;-80
2023/05/14 01:35:44;;;;;;;7.65;3.08;;;;;;;17.28;42.71;100123.44;5050495;28;20059;-80
2023/05/14 01:38:13;;;;;;;8.95;3.13;;;;;;;17.28;42.20;100115.47;5050426;28;20056;-80
2023/05/14 01:40:40;;;;;;;4.32;3.42;;;;;;;17.27;42.22;100124.38;5050602;28;20119;-80
2023/05/14 01:43:07;;;;;;;4.15;3.55;;;;;;;17.24;42.37;100122.00;5050560;28;20396;-80
2023/05/14 01:45:35;;;;;;;4.25;3.67;;;;;;;17.23;42.56;100125.59;5032491;28;20064;-80
2023/05/14 01:48:01;;;;;;;7.50;4.03;;;;;;;17.21;42.86;100114.25;5050145;28;20568;-80
2023/05/14 01:50:28;;;;;;;6.55;4.20;;;;;;;17.19;42.78;100126.81;5050492;28;20048;-80
2023/05/14 01:52:55;;;;;;;6.95;4.35;;;;;;;17.16;43.16;100125.25;5050460;28;20080;-79
2023/05/14 01:55:23;;;;;;;9.52;5.25;;;;;;;17.13;42.89;100119.31;5049841;28;20078;-79
2023/05/14 01:57:52;;;;;;;7.75;4.60;;;;;;;17.08;42.97;100114.34;5050195;28;20056;-80
2023/05/14 02:00:19;;;;;;;8.88;4.95;;;;;;;17.04;43.33;100116.41;5032594;28;20087;-80
2023/05/14 02:02:46;;;;;;;6.00;5.38;;;;;;;16.99;43.24;100110.59;5050309;28;20057;-80
2023/05/14 02:05:12;;;;;;;7.07;5.18;;;;;;;16.95;43.72;100109.13;5049946;28;20144;-80
2023/05/14 02:07:39;;;;;;;6.05;5.45;;;;;;;16.90;43.67;100101.50;5049532;28;20088;-80
2023/05/14 02:10:06;;;;;;;12.02;5.82;;;;;;;16.86;43.71;100108.03;5049931;28;20048;-80
2023/05/14 02:12:32;;;;;;;7.30;5.78;;;;;;;16.82;43.68;100103.09;5050324;28;20114;-80
2023/05/14 02:14:59;;;;;;;7.20;5.40;;;;;;;16.77;44.21;100103.44;5040377;28;20061;-79
2023/05/14 02:17:25;;;;;;;8.35;5.65;;;;;;;16.72;43.84;100103.81;5045881;28;20057;-79
2023/05/14 02:19:52;;;;;;;11.02;6.25;;;;;;;16.66;43.90;100102.47;5049818;28;20519;-80
2023/05/14 02:22:18;;;;;;;6.95;6.03;;;;;;;16.62;43.93;100100.16;5049983;28;20503;-79
2023/05/14 02:24:44;;;;;;;9.55;5.88;;;;;;;16.57;44.20;100104.97;5049508;28;20052;-80
2023/05/14 02:27:12;;;;;;;9.27;5.78;;;;;;;16.51;43.89;100099.19;5049613;28;20068;-80
2023/05/14 02:29:38;;;;;;;8.40;5.93;;;;;;;16.46;43.99;100104.00;5050045;28;20359;-79
2023/05/14 02:32:04;;;;;;;7.15;5.97;;;;;;;16.42;43.95;100097.22;5060793;28;20088;-80
2023/05/14 02:34:33;;;;;;;7.00;5.93;;;;;;;16.38;43.91;100095.78;5069844;28;20048;-80
2023/05/14 02:36:59;;;;;;;6.47;5.57;;;;;;;16.33;43.93;100093.44;5069163;28;20060;-80
2023/05/14 02:39:26;;;;;;;9.10;6.07;;;;;;;16.24;43.84;100087.03;5069979;28;20459;-79
2023/05/14 02:41:52;;;;;;;11.38;6.70;;;;;;;16.18;44.13;100079.53;5069689;28;20083;-80
2023/05/14 02:44:18;;;;;;;8.73;6.22;;;;;;;16.08;44.04;100079.41;5085326;28;20056;-79
2023/05/14 02:46:45;;;;;;;8.65;6.78;;;;;;;15.99;44.38;100080.06;5069105;28;20080;-80
2023/05/14 02:49:11;;;;;;;8.30;7.40;;;;;;;15.91;44.29;100085.91;5069869;28;20139;-79
2023/05/14 02:51:38;;;;;;;11.18;6.78;;;;;;;15.82;44.60;100074.19;5069735;28;20125;-80
2023/05/14 02:54:05;;;;;;;10.45;6.50;;;;;;;15.76;45.24;100074.63;5069983;28;20110;-79
2023/05/14 02:56:31;;;;;;;11.20;6.60;;;;;;;15.70;45.40;100075.09;5069510;28;20053;-79
2023/05/14 02:58:57;;;;;;;9.60;6.43;;;;;;;15.66;45.75;100078.94;5069758;28;20056;-79
2023/05/14 03:01:24;;;;;;;7.38;6.60;;;;;;;15.63;46.09;100080.00;5069670;28;20202;-80
2023/05/14 03:03:51;;;;;;;10.18;6.72;;;;;;;15.62;46.02;100072.97;5068494;28;20052;-79
2023/05/14 03:06:17;;;;;;;11.10;6.85;;;;;;;15.59;46.15;100068.75;5069224;28;20060;-79
2023/05/14 03:08:44;;;;;;;8.80;6.70;;;;;;;15.59;45.99;100070.56;5071253;28;20056;-79
2023/05/14 03:11:10;;;;;;;7.00;6.13;;;;;;;15.59;46.33;100066.09;5073487;28;20057;-79
2023/05/14 03:13:37;;;;;;;6.60;5.90;;;;;;;15.60;46.35;100066.97;5073566;28;20052;-79
2023/05/14 03:16:03;;;;;;;8.55;5.65;;;;;;;15.60;45.97;100059.84;5073137;28;20139;-80
2023/05/14 03:18:32;;;;;;;7.03;5.90;;;;;;;15.59;46.20;100060.78;5073069;28;20144;-79
2023/05/14 03:20:58;;;;;;;5.47;4.97;;;;;;;15.59;46.32;100068.75;5071952;28;20465;-79
2023/05/14 03:23:24;;;;;;;8.38;4.80;;;;;;;15.57;46.23;100060.06;5073260;28;20090;-79
2023/05/14 03:25:51;;;;;;;8.40;5.35;;;;;;;15.57;46.10;100054.75;5072873;28;20537;-79
2023/05/14 03:28:17;;;;;;;7.65;5.10;;;;;;;15.57;46.71;100062.72;5073105;28;20056;-79
2023/05/14 03:30:44;;;;;;;6.78;4.68;;;;;;;15.58;46.60;100060.91;5073105;28;20044;-79
2023/05/14 03:33:11;;;;;;;8.50;4.80;;;;;;;15.59;46.12;100054.66;5073027;28;20102;-79
2023/05/14 03:35:37;;;;;;;4.80;4.35;;;;;;;15.60;46.54;100053.69;5072890;28;20465;-80
2023/05/14 03:38:03;;;;;;;6.28;4.03;;;;;;;15.62;46.51;100054.41;5072894;28;20135;-79
2023/05/14 03:40:30;;;;;;;7.18;5.22;;;;;;;15.63;46.56;100048.16;5072807;28;20494;-79
2023/05/14 03:42:56;;;;;;;5.10;4.00;;;;;;;15.66;46.29;100050.56;5073061;28;20127;-79
2023/05/14 03:45:23;;;;;;;5.13;4.22;;;;;;;15.68;46.24;100043.34;5071431;28;20056;-79
2023/05/14 03:47:49;;;;;;;5.20;4.22;;;;;;;15.71;46.30;100052.91;5072569;28;20060;-79
2023/05/14 03:50:16;;;;;;;5.55;3.92;;;;;;;15.74;46.31;100055.34;5072803;28;20049;-80
2023/05/14 03:52:43;;;;;;;4.72;3.88;;;;;;;15.79;45.90;100052.31;5071907;28;20165;-79
2023/05/14 03:55:09;;;;;;;5.25;3.65;;;;;;;15.80;46.03;100052.22;5072554;28;20048;-79
2023/05/14 03:57:35;;;;;;;5.05;4.03;;;;;;;15.83;45.74;100037.84;5072419;28;20053;-79
2023/05/14 04:00:06;;;;;;;8.43;3.88;;;;;;;15.84;45.37;100044.84;5071495;28;20091;-80
2023/05/14 04:02:32;;;;;;;6.18;4.43;;;;;;;15.87;45.54;100041.97;5072608;28;20162;-79
2023/05/14 04:04:59;;;;;;;5.95;4.07;;;;;;;15.88;45.62;100052.47;5072353;28;20087;-79
2023/05/14 04:07:25;;;;;;;5.43;3.88;;;;;;;15.88;45.47;100049.84;5072486;28;20091;-79
2023/05/14 04:09:51;;;;;;;8.98;4.80;;;;;;;15.90;45.32;100052.38;5072567;28;20080;-79
2023/05/14 04:12:18;;;;;;;5.07;4.30;;;;;;;15.89;45.21;100056.81;5072546;28;20056;-79
2023/05/14 04:14:44;;;;;;;6.93;4.40;;;;;;;15.88;45.15;100046.31;5072793;28;20060;-79
2023/05/14 04:17:10;;;;;;;12.02;5.00;;;;;;;15.87;44.88;100052.59;5071646;28;20572;-80
2023/05/14 04:19:38;;;;;;;7.05;5.13;;;;;;;15.84;45.06;100053.69;5072241;28;20457;-79
2023/05/14 04:22:04;;;;;;;5.55;3.95;;;;;;;15.83;44.97;100045.81;5072350;28;20113;-79
2023/05/14 04:24:30;;;;;;;8.55;4.80;;;;;;;15.83;45.40;100048.47;5072527;28;20489;-80
2023/05/14 04:26:57;;;;;;;5.07;3.85;;;;;;;15.82;45.41;100050.31;5071888;28;20056;-79
2023/05/14 04:29:23;;;;;;;6.07;4.47;;;;;;;15.84;45.58;100050.16;5072544;28;20131;-80
2023/05/14 04:31:49;;;;;;;5.93;4.65;;;;;;;15.85;46.07;100057.19;5072876;28;20056;-79
2023/05/14 04:34:16;;;;;;;7.32;5.07;;;;;;;15.86;46.30;100053.56;5072336;28;20061;-79
2023/05/14 04:36:42;;;;;;;7.82;5.10;;;;;;;15.86;46.01;100051.75;5071575;28;20492;-79
2023/05/14 04:39:11;;;;;;;10.70;5.00;;;;;;;15.87;46.07;100061.41;5072120;28;20171;-79
2023/05/14 04:41:37;;;;;;;5.70;4.78;;;;;;;15.87;45.84;100048.16;5071748;28;20084;-80
2023/05/14 04:44:04;;;;;;;6.75;3.95;;;;;;;15.89;45.88;100051.53;5071857;28;20056;-79
2023/05/14 04:46:30;;;;;;;4.53;4.00;;;;;;;15.90;45.76;100055.03;5071344;28;20052;-79
2023/05/14 04:48:57;;;;;;;10.88;4.82;;;;;;;15.90;46.11;100055.84;5070125;28;20453;-79
2023/05/14 04:51:23;;;;;;;6.80;4.55;;;;;;;15.91;45.89;100051.41;5071666;28;20052;-79
2023/05/14 04:53:49;;;;;;;6.18;4.05;;;;;;;15.93;46.02;100048.63;5071847;28;20141;-79
2023/05/14 04:56:16;;;;;;;7.22;4.05;;;;;;;15.92;46.40;100042.47;5070273;28;20060;-80
2023/05/14 04:58:42;;;;;;;7.20;4.38;;;;;;;15.94;46.24;100050.31;5071034;28;20056;-79
2023/05/14 05:01:09;;;;;;;8.48;4.00;;;;;;;15.94;46.23;100051.22;5071406;28;20052;-79
2023/05/14 05:03:35;;;;;;;4.90;3.90;;;;;;;15.96;46.56;100049.28;5071588;28;20060;-79
2023/05/14 05:06:02;;;;;;;7.78;4.53;;;;;;;15.97;46.72;100045.69;5069904;28;20070;-79
2023/05/14 05:08:29;;;;;;;6.30;4.10;;;;;;;15.99;46.66;100049.06;5069767;28;20052;-80
2023/05/14 05:10:55;;;;;;;4.75;4.03;;;;;;;16.00;46.76;100045.44;5070089;28;20538;-80
2023/05/14 05:13:22;;;;;;;5.65;3.70;;;;;;;16.02;46.19;100048.84;5071125;28;20060;-80
2023/05/14 05:15:48;;;;;;;5.47;3.85;;;;;;;16.05;46.65;100053.06;5070983;28;20060;-79
2023/05/14 05:18:14;;;;;;;4.40;3.25;;;;;;;16.07;46.38;100055.59;5070896;28;20063;-79
2023/05/14 05:20:41;;;;;;;7.20;3.95;;;;;;;16.11;46.97;100057.91;5071067;28;20044;-79
2023/05/14 05:23:07;;;;;;;7.38;3.70;;;;;;;16.17;47.12;100053.06;5071070;28;20056;-79
2023/05/14 05:25:34;;;;;;;4.15;3.00;;;;;;;16.21;47.04;100057.19;5071036;28;20562;-79
2023/05/14 05:28:00;;;;;;;3.28;2.95;;;;;;;16.26;47.43;100063.84;5086101;28;20048;-80
2023/05/14 05:30:27;;;;;;;5.13;2.78;;;;;;;16.33;47.21;100066.06;5070470;28;20045;-81
2023/05/14 05:32:53;;;;;;;5.82;3.47;;;;;;;16.39;47.51;100066.44;5070613;28;20147;-80
2023/05/14 05:35:19;;;;;;;4.03;3.58;;;;;;;16.49;47.95;100073.69;5070588;28;20091;-80
2023/05/14 05:37:46;;;;;;;4.75;3.53;;;;;;;16.54;48.25;100069.72;5070267;28;20122;-80
2023/05/14 05:40:13;;;;;;;6.50;3.60;;;;;;;16.62;48.69;100070.91;5069033;28;20052;-80
2023/05/14 05:42:40;;;;;;;6.43;3.55;;;;;;;16.69;48.80;100072.16;5069048;28;20178;-80
2023/05/14 05:45:06;;;;;;;4.43;3.80;;;;;;;16.74;48.66;100069.97;5068875;28;20060;-80
2023/05/14 05:47:33;;;;;;;5.07;3.15;;;;;;;16.79;48.84;100065.13;5068940;28;20104;-80
2023/05/14 05:49:59;;;;;;;4.40;3.95;;;;;;;16.84;49.18;100069.25;5070059;28;20446;-80
2023/05/14 05:52:28;;;;;;;4.07;3.65;;;;;;;16.86;48.88;100065.50;5084515;28;20056;-80
2023/05/14 05:54:54;;;;;;;5.38;3.47;;;;;;;16.91;48.58;100070.47;5068530;28;20056;-80
2023/05/14 05:57:22;;;;;;;5.55;3.70;;;;;;;16.95;48.90;100071.91;5068695;28;20083;-80
2023/05/14 05:59:52;;;;;;;5.28;3.67;;;;;;;16.99;48.86;100068.03;5068714;28;20102;-80
2023/05/14 06:02:18;;;;;;;4.82;3.83;;;;;;;17.03;48.92;100074.81;5070321;28;20048;-80
2023/05/14 06:04:45;;;;;;;3.38;3.08;;;;;;;17.08;48.70;100076.28;5070111;28;20068;-81
2023/05/14 06:07:11;;;;;;;3.42;3.05;;;;;;;17.13;48.61;100074.09;5052169;28;20529;-81
2023/05/14 06:09:38;;;;;;;6.38;3.10;;;;;;;17.17;48.64;100070.25;5065414;28;20534;-80
2023/05/14 06:12:04;;;;;;;5.40;3.53;;;;;;;17.22;48.65;100070.72;5049183;28;20091;-80
2023/05/14 06:14:31;;;;;;;5.97;3.40;;;;;;;17.26;48.97;100072.16;5050069;28;20091;-79
2023/05/14 06:16:57;;;;;;;4.10;3.40;;;;;;;17.34;48.83;100071.53;5049392;28;20080;-79
2023/05/14 06:19:24;;;;;;;4.00;3.25;;;;;;;17.40;48.74;100076.38;5050108;28;20087;-79
2023/05/14 06:21:50;;;;;;;4.78;3.22;;;;;;;17.48;48.58;100080.19;5049835;28;20049;-80
2023/05/14 06:24:18;;;;;;;3.38;3.08;;;;;;;17.55;48.79;100078.75;5049974;28;20502;-80
2023/05/14 06:26:45;;;;;;;4.28;3.47;;;;;;;17.63;48.87;100078.09;5048266;28;20053;-80
2023/05/14 06:29:11;;;;;;;3.65;3.35;;;;;;;17.70;48.49;100081.97;5050086;28;20108;-80
2023/05/14 06:31:37;;;;;;;5.75;3.67;;;;;;;17.78;48.37;100084.84;5121855;22;20053;-77
2023/05/14 06:34:04;;;;;;;5.03;3.10;;;;;;;17.87;48.28;100083.22;5048401;28;20061;-77
2023/05/14 06:36:31;;;;;;;3.90;3.55;;;;;;;17.95;48.04;100082.63;5050111;28;20055;-77
2023/05/14 06:38:59;;;;;;;3.33;2.90;;;;;;;18.03;48.17;100079.31;5050401;28;20049;-77
2023/05/14 06:41:26;;;;;;;3.63;3.22;;;;;;;18.12;48.34;100083.06;5050284;28;20049;-77
2023/05/14 06:43:53;;;;;;;3.90;3.47;;;;;;;18.21;48.32;100084.94;5049336;28;20049;-76
2023/05/14 06:46:20;;;;;;;4.30;3.25;;;;;;;18.28;48.32;100088.75;5050246;28;20087;-77
2023/05/14 06:48:46;;;;;;;3.58;3.28;;;;;;;18.36;48.09;100080.97;5049041;28;20049;-77
2023/05/14 06:51:13;;;;;;;4.78;3.70;;;;;;;18.44;47.93;100080.34;5048746;28;20053;-76
2023/05/14 06:53:40;;;;;;;5.07;3.05;;;;;;;18.53;47.76;100083.16;5050485;28;20509;-77
2023/05/14 06:56:06;;;;;;;4.88;3.60;;;;;;;18.60;47.79;100079.84;5049920;28;20049;-79
2023/05/14 06:58:33;;;;;;;3.95;3.55;;;;;;;18.69;47.85;100077.38;5049944;28;20057;-76
2023/05/14 07:00:59;;;;;;;3.35;3.05;;;;;;;18.77;47.94;100079.38;5050042;28;20096;-77
2023/05/14 07:03:27;;;;;;;3.53;3.22;;;;;;;18.85;47.69;100072.41;5050509;28;20064;-77
2023/05/14 07:05:54;;;;;;;3.50;3.20;;;;;;;18.94;47.33;100076.06;5050049;28;20057;-76
2023/05/14 07:08:21;;;;;;;3.05;2.85;;;;;;;19.01;47.29;100082.56;5046722;28;20049;-78
2023/05/14 07:10:47;;;;;;;6.07;2.90;;;;;;;19.10;47.45;100080.13;5048575;28;20588;-77
2023/05/14 07:13:14;;;;;;;4.03;2.97;;;;;;;19.18;47.28;100074.09;5050340;28;20119;-77
2023/05/14 07:15:41;;;;;;;2.90;2.60;;;;;;;19.23;46.88;100075.38;5049760;28;20452;-77
2023/05/14 07:18:07;;;;;;;5.20;2.97;;;;;;;19.29;47.19;100074.00;5048611;28;20095;-77
2023/05/14 07:20:34;;;;;;;3.80;2.78;;;;;;;19.35;46.75;100067.25;5050259;28;20061;-77
2023/05/14 07:23:03;;;;;;;3.10;2.83;;;;;;;19.39;46.62;100069.50;5050115;28;20099;-77
2023/05/14 07:25:31;;;;;;;3.78;3.15;;;;;;;19.45;46.17;100064.59;5048646;28;20540;-77
2023/05/14 07:27:58;;;;;;;3.50;2.78;;;;;;;19.50;46.63;100073.03;5051463;28;20114;-77
2023/05/14 07:30:24;;;;;;;4.55;2.50;;;;;;;19.56;46.48;100066.28;5049555;28;20056;-77
2023/05/14 07:32:51;;;;;;;4.00;2.75;;;;;;;19.58;46.27;100067.84;5048971;28;20045;-77
2023/05/14 07:35:18;;;;;;;2.85;2.63;;;;;;;19.63;46.57;100060.25;5049606;28;20088;-77
2023/05/14 07:37:45;;;;;;;4.18;2.60;;;;;;;19.67;45.99;100067.00;5049378;28;20144;-77
2023/05/14 07:40:12;;;;;;;4.93;2.90;;;;;;;19.73;45.95;100062.13;5048064;28;20079;-77
2023/05/14 07:42:44;;;;;;;2.92;2.60;;;;;;;19.77;46.28;100056.34;5049235;28;20068;-77
2023/05/14 07:45:11;;;;;;;4.45;2.75;;;;;;;19.83;46.23;100060.28;5049592;28;20060;-77
2023/05/14 07:47:38;;;;;;;2.97;2.67;;;;;;;19.88;45.87;100063.38;5048153;28;20071;-77
2023/05/14 07:50:05;;;;;;;2.97;2.65;;;;;;;19.94;45.75;100067.31;5049820;28;20135;-77
2023/05/14 07:52:32;;;;;;;2.72;2.50;;;;;;;20.00;45.66;100066.75;5048385;28;20061;-77
2023/05/14 07:55:00;;;;;;;2.42;2.22;;;;;;;20.04;45.53;100068.16;5051303;28;20433;-77
2023/05/14 07:57:26;;;;;;;3.90;2.65;;;;;;;20.09;45.76;100067.75;5053013;28;20152;-77
2023/05/14 07:59:53;;;;;;;2.67;2.47;;;;;;;20.13;45.80;100071.81;5053428;28;20150;-77
2023/05/14 08:02:19;;;;;;;2.92;2.63;;;;;;;20.17;46.15;100067.03;5053594;28;20076;-77
2023/05/14 08:04:46;;;;;;;2.75;2.30;;;;;;;20.21;45.73;100067.56;5052967;28;20060;-77
2023/05/14 08:07:13;;;;;;;3.42;2.28;;;;;;;20.26;45.48;100074.19;5052831;28;20139;-77
2023/05/14 08:09:39;;;;;;;3.38;2.10;;;;;;;20.30;45.49;100067.56;5053315;28;20061;-78
2023/05/14 08:12:07;;;;;;;2.95;2.45;;;;;;;20.35;45.19;100063.63;5051922;28;20087;-78
2023/05/14 08:14:33;;;;;;;2.70;2.35;;;;;;;20.41;45.30;100069.22;5053127;28;20122;-77
2023/05/14 08:17:00;;;;;;;6.97;3.38;;;;;;;20.48;45.91;100068.66;5052330;28;20055;-77
2023/05/14 08:19:27;;;;;;;4.30;3.35;;;;;;;20.54;46.46;100060.06;5052785;28;20053;-78
2023/05/14 08:21:53;;;;;;;4.20;3.25;;;;;;;20.63;46.94;100061.84;5053183;28;20098;-77
2023/05/14 08:24:20;;;;;;;4.18;3.10;;;;;;;20.72;46.81;100064.66;5052952;28;20580;-78
2023/05/14 08:26:47;;;;;;;3.45;3.00;;;;;;;20.81;46.89;100066.44;5052259;28;20056;-77
2023/05/14 08:29:13;;;;;;;7.80;3.50;;;;;;;20.88;46.91;100064.91;5052716;28;20057;-78
2023/05/14 08:31:42;;;;;;;3.80;3.10;;;;;;;20.96;46.10;100067.69;5052562;28;20087;-78
2023/05/14 08:34:09;;;;;;;4.18;2.92;;;;;;;21.04;45.88;100064.25;5052740;28;20064;-78
2023/05/14 08:36:36;;;;;;;3.40;2.58;;;;;;;21.11;46.55;100063.69;5051945;28;20761;-78
2023/05/14 08:39:03;;;;;;;4.20;3.17;;;;;;;21.16;46.27;100056.84;5052561;28;20136;-78
2023/05/14 08:41:30;;;;;;;3.00;2.60;;;;;;;21.24;45.62;100066.84;5052597;28;20112;-77
2023/05/14 08:44:26;;;;;;;4.05;2.42;;;;;;;21.29;44.58;100053.00;5051243;28;20045;-78
2023/05/14 08:46:53;;;;;;;2.13;1.92;;;;;;;21.39;44.53;100058.28;5051639;28;20060;-78
2023/05/14 08:49:39;;;;;;;2.17;1.85;;;;;;;21.41;44.79;100057.16;5052659;28;20107;-78
2023/05/14 08:52:08;;;;;;;2.00;1.80;;;;;;;21.51;44.71;100045.50;5052471;28;20049;-78
2023/05/14 08:54:34;;;;;;;2.47;1.98;;;;;;;21.57;44.97;100044.94;5050958;28;20560;-78
2023/05/14 08:57:07;;;;;;;2.45;2.25;;;;;;;21.61;45.36;100043.63;5051662;28;20053;-79
2023/05/14 08:59:34;;;;;;;1.90;1.77;;;;;;;21.69;44.82;100045.53;5052529;28;20095;-78
2023/05/14 09:02:01;;;;;;;1.90;1.75;;;;;;;21.73;44.45;100037.06;5051076;28;20104;-78
2023/05/14 09:04:30;;;;;;;2.22;2.03;;;;;;;21.82;44.22;100039.81;5052134;28;20114;-79
2023/05/14 09:07:00;;;;;;;2.53;2.03;;;;;;;21.86;44.53;100035.81;5049248;28;20089;-78
2023/05/14 09:09:27;;;;;;;2.10;1.90;;;;;;;21.91;44.31;100033.53;5052252;28;20147;-79
2023/05/14 09:11:53;;;;;;;2.35;2.05;;;;;;;21.96;44.18;100028.56;5052000;28;20489;-78
2023/05/14 09:14:22;;;;;;;1.77;1.67;;;;;;;21.99;44.37;100030.91;5050679;28;20561;-78
2023/05/14 09:16:50;;;;;;;2.25;1.80;;;;;;;22.05;44.17;100037.47;5051492;28;20052;-79
2023/05/14 09:19:20;;;;;;;2.47;1.70;;;;;;;22.12;43.78;100035.00;5051776;28;20053;-78
2023/05/14 09:21:48;;;;;;;2.72;1.77;;;;;;;22.20;43.19;100037.75;5051842;28;20092;-78
2023/05/14 09:24:20;;;;;;;1.83;1.60;;;;;;;22.27;42.75;100035.28;5051330;28;20459;-78
2023/05/14 09:26:52;;;;;;;1.70;1.60;;;;;;;22.36;42.79;100030.84;5051207;28;20064;-78
2023/05/14 09:29:19;;;;;;;4.45;1.73;;;;;;;22.44;42.46;100022.84;5051882;28;20094;-78
2023/05/14 09:31:49;;;;;;;3.47;1.75;;;;;;;22.51;43.49;100029.22;5051625;28;20390;-78
2023/05/14 09:34:36;;;;;;;1.88;1.77;;;;;;;22.56;42.62;100030.63;5051535;28;20555;-78
2023/05/14 09:37:05;;;;;;;1.80;1.70;;;;;;;22.69;43.17;100038.25;5051162;28;20092;-79
2023/05/14 09:39:35;;;;;;;2.22;2.03;;;;;;;22.75;41.56;100026.88;5051499;28;20049;-78
2023/05/14 09:42:02;;;;;;;2.25;2.05;;;;;;;22.84;42.24;100027.75;5051650;28;20087;-79
2023/05/14 09:44:29;;;;;;;2.13;1.92;;;;;;;22.91;41.97;100015.34;5050182;28;20413;-78
2023/05/14 09:46:55;;;;;;;2.03;1.83;;;;;;;22.99;42.40;100012.69;5050527;28;20061;-78
2023/05/14 09:49:22;;;;;;;2.20;2.00;;;;;;;23.08;42.19;100018.09;5051515;28;20053;-78
2023/05/14 09:51:49;;;;;;;2.88;1.90;;;;;;;23.17;42.07;100014.41;5051409;28;20056;-78
2023/05/14 09:54:16;;;;;;;2.05;1.85;;;;;;;23.27;41.46;100019.66;5051074;28;20148;-78
2023/05/14 09:56:43;;;;;;;2.25;2.05;;;;;;;23.36;41.69;100012.50;5049232;28;20053;-78
2023/05/14 09:59:10;;;;;;;3.20;2.28;;;;;;;23.45;41.02;100011.50;5051281;28;20084;-78
2023/05/14 10:01:38;;;;;;;2.30;2.10;;;;;;;23.52;40.89;100009.81;5051106;28;20425;-78
2023/05/14 10:04:07;;;;;;;2.17;1.75;;;;;;;23.58;40.95;100008.31;5050425;28;20601;-78
2023/05/14 10:06:36;;;;;;;2.65;2.17;;;;;;;23.64;41.79;99994.22;5049147;28;20057;-77
2023/05/14 10:09:07;;;;;;;3.78;2.00;;;;;;;23.73;41.71;99994.22;5049329;28;20132;-78
2023/05/14 10:11:37;;;;;;;2.72;1.85;;;;;;;23.81;41.52;99996.91;5050031;28;20044;-78
2023/05/14 10:14:11;;;;;;;2.47;2.00;;;;;;;23.90;40.46;99992.34;5049311;28;20049;-78
2023/05/14 10:16:45;;;;;;;1.83;1.65;;;;;;;23.98;39.92;100000.41;5049822;28;20136;-78
2023/05/14 10:19:15;;;;;;;2.75;1.70;;;;;;;24.07;39.87;99983.25;5050718;28;20485;-78
2023/05/14 10:21:46;;;;;;;1.92;1.83;;;;;;;24.14;39.93;99990.69;5050875;28;20409;-78
2023/05/14 10:24:13;;;;;;;2.10;1.75;;;;;;;24.20;40.79;99990.84;5051036;28;20152;-78
2023/05/14 10:26:41;;;;;;;2.63;2.00;;;;;;;24.27;39.76;99990.16;5049644;28;20060;-78
2023/05/14 10:29:11;;;;;;;1.65;1.55;;;;;;;24.31;39.06;99984.25;5050809;28;20059;-78
2023/05/14 10:31:54;;;;;;;2.10;1.55;;;;;;;24.34;39.70;99981.22;5049133;28;20049;-78
2023/05/14 10:34:41;;;;;;;1.95;1.77;;;;;;;24.42;39.85;99983.06;5050576;28;20395;-78
2023/05/14 10:37:13;;;;;;;1.73;1.52;;;;;;;24.53;39.64;99984.53;5049866;28;20052;-78
2023/05/14 10:39:46;;;;;;;1.95;1.42;;;;;;;24.64;39.13;99974.38;5050681;28;20503;-78
2023/05/14 10:42:18;;;;;;;1.92;1.70;;;;;;;24.75;39.78;99979.41;5050658;28;20394;-78
2023/05/14 10:44:50;;;;;;;1.60;1.50;;;;;;;24.94;41.02;99975.47;5050177;28;20144;-78
2023/05/14 10:47:17;;;;;;;4.07;1.83;;;;;;;25.22;40.66;99976.78;5049994;28;20143;-79
2023/05/14 10:49:47;;;;;;;3.85;1.60;;;;;;;25.54;40.60;99971.34;5050848;28;20052;-78
2023/05/14 10:52:19;;;;;;;2.47;1.80;;;;;;;25.95;40.55;99971.03;5050551;28;20088;-79
2023/05/14 10:54:57;;;;;;;1.83;1.60;;;;;;;26.39;39.07;99963.16;5049144;28;20052;-78
2023/05/14 10:57:29;;;;;;;2.20;1.63;;;;;;;26.90;39.42;99961.47;5050231;28;20421;-79
2023/05/14 10:59:58;;;;;;;2.22;1.85;;;;;;;27.35;38.71;99958.66;5048275;28;20057;-78
2023/05/14 11:02:33;;;;;;;1.98;1.58;;;;;;;27.78;37.35;99959.69;5050507;28;20057;-79
2023/05/14 11:05:03;;;;;;;1.40;1.30;;;;;;;28.20;36.53;99960.59;5050072;28;20059;-79
2023/05/14 11:07:38;;;;;;;1.60;1.27;;;;;;;28.63;35.72;99955.19;5049803;28;20543;-78
2023/05/14 11:10:11;;;;;;;1.50;1.40;;;;;;;29.03;34.27;99951.81;5048954;28;20524;-79
2023/05/14 11:12:39;;;;;;;1.52;1.40;;;;;;;29.40;35.98;99949.56;5050043;28;20606;-78
2023/05/14 11:15:08;;;;;;;1.67;1.48;;;;;;;29.78;35.00;99951.69;5049697;28;20056;-78
2023/05/14 11:17:36;;;;;;;2.40;1.60;;;;;;;30.12;33.88;99953.50;5048337;28;20460;-78
2023/05/14 11:20:06;;;;;;;1.67;1.50;;;;;;;30.42;33.23;99955.72;5050135;28;20044;-78
2023/05/14 11:22:34;;;;;;;1.95;1.30;;;;;;;30.69;32.28;99939.34;5050049;28;20089;-79
2023/05/14 11:25:01;;;;;;;1.75;1.40;;;;;;;30.95;32.92;99943.00;5049769;28;20099;-78
2023/05/14 11:27:28;;;;;;;1.40;1.30;;;;;;;31.21;31.62;99938.44;5049767;28;20060;-79
2023/05/14 11:29:55;;;;;;;1.42;1.20;;;;;;;31.45;31.95;99938.69;5052240;28;20053;-78
2023/05/14 11:32:21;;;;;;;1.65;1.45;;;;;;;31.66;31.36;99925.75;5053686;28;20553;-79
2023/05/14 11:34:48;;;;;;;1.65;1.40;;;;;;;31.85;30.28;99930.16;5053661;28;20410;-78
2023/05/14 11:37:15;;;;;;;2.05;1.50;;;;;;;31.99;32.12;99921.88;5053180;28;20167;-79
2023/05/14 11:39:47;;;;;;;2.08;1.67;;;;;;;32.04;30.25;99924.78;5053681;28;20592;-79
2023/05/14 11:42:16;;;;;;;1.80;1.48;;;;;;;32.08;30.25;99922.41;5053510;28;20085;-79
2023/05/14 11:44:43;;;;;;;2.20;1.60;;;;;;;32.03;30.69;99920.34;5053579;28;20053;-79
2023/05/14 11:47:10;;;;;;;1.70;1.55;;;;;;;31.96;30.31;99906.81;5053179;28;20053;-78
2023/05/14 11:49:36;;;;;;;3.42;1.50;;;;;;;31.92;30.17;99910.25;5053503;28;20092;-79
2023/05/14 11:52:06;;;;;;;1.60;1.17;;;;;;;31.89;30.28;99913.41;5053192;28;20049;-79
2023/05/14 11:54:33;;;;;;;1.48;1.38;;;;;;;31.85;29.03;99905.66;5053595;28;20126;-79
2023/05/14 11:57:09;;;;;;;3.17;1.60;;;;;;;31.78;28.83;99904.91;5052670;28;20409;-78
2023/05/14 11:59:37;;;;;;;1.75;1.45;;;;;;;31.79;29.57;99906.56;5053350;28;20103;-79